»·PEaware :: N618ER KDLO-KEMT

N618ER :: KDLO-KEMT

FLIGHT INFORMATION

Flight Status: Arrived
Operator: Privately registered:
United States
More flights under this callsign
Pilot: Ryan E. (25987)
Aircraft: SOCATA TBM-900
(TBM9)
More flights by this aircraft type
Origin: KDLO Delano Mun
United States
Destination: KEMT El Monte
United States
More flights between these airports :: More routes between these airports
Route:
File this flight plan on PilotEdge
Remarks:
Altitude:
(Current/Filed)
10,000ft
Speed:
(Current/Filed)
250kts
Departed: 02-Nov-19 02:00 PM
Arrived: 02-Nov-19 03:18 PM
Distance/Time
Traveled:
116nm/1:18
Distance/Time
To Go:
Arrived

Flight Plot

Page will automatically refresh every two minutes.


Map Options




Map Legend


Flown Route
Filed Route
Departure Airport
Arrival Airport
Navaid (VOR, NDB)
Fix

Horizontal Profiles

Position Reports

Time Latitude Longitude Heading Altitude Ground
Speed
02-Nov-19 13:30 35.745945 -119.238893 0 315ft 0kts
02-Nov-19 13:31 35.745945 -119.238893 339 315ft 0kts
02-Nov-19 13:32 35.745945 -119.238893 339 315ft 0kts
02-Nov-19 13:33 35.745945 -119.238893 339 315ft 0kts
02-Nov-19 13:34 35.745945 -119.238893 339 315ft 0kts
02-Nov-19 13:35 35.745945 -119.238893 339 315ft 0kts
02-Nov-19 13:36 35.745945 -119.238893 339 315ft 0kts
02-Nov-19 13:37 35.745945 -119.238893 340 315ft 0kts
02-Nov-19 13:38 35.745945 -119.238893 340 315ft 0kts
02-Nov-19 13:39 35.746377 -119.239006 1 315ft 0kts
02-Nov-19 13:40 35.746377 -119.239006 1 315ft 0kts
02-Nov-19 13:41 35.746377 -119.239006 1 315ft 0kts
02-Nov-19 13:42 35.746377 -119.239006 1 315ft 0kts
02-Nov-19 13:43 35.746377 -119.239006 1 315ft 0kts
02-Nov-19 13:44 35.746377 -119.239006 1 315ft 0kts
02-Nov-19 13:50 35.746382 -119.239006 1 315ft 0kts
02-Nov-19 13:51 35.746382 -119.239006 1 315ft 0kts
02-Nov-19 13:52 35.746388 -119.239006 1 315ft 0kts
02-Nov-19 13:53 35.746399 -119.239005 1 315ft 0kts
02-Nov-19 13:54 35.746410 -119.239005 1 315ft 0kts
02-Nov-19 13:55 35.746050 -119.238455 157 315ft 7kts
02-Nov-19 13:56 35.741713 -119.236382 159 315ft 20kts
02-Nov-19 13:57 35.738660 -119.234168 109 315ft 0kts
02-Nov-19 13:58 35.738451 -119.233417 86 315ft 0kts
02-Nov-19 13:59 35.754954 -119.240677 342 793ft 105kts
02-Nov-19 14:00 35.746186 -119.220045 152 1939ft 136kts
02-Nov-19 14:01 35.701900 -119.218638 179 3874ft 164kts
02-Nov-19 14:02 35.656520 -119.220156 179 6527ft 165kts
02-Nov-19 14:03 35.610100 -119.220028 150 8888ft 167kts
02-Nov-19 14:04 35.566027 -119.182146 144 9465ft 224kts
02-Nov-19 14:05 35.511813 -119.137107 144 9446ft 238kts
02-Nov-19 14:06 35.456397 -119.091298 144 9453ft 243kts
02-Nov-19 14:07 35.399687 -119.044505 144 9457ft 246kts
02-Nov-19 14:08 35.342755 -118.997606 144 9459ft 246kts
02-Nov-19 14:09 35.285696 -118.950679 144 9456ft 246kts
02-Nov-19 14:10 35.228493 -118.903717 144 9452ft 246kts
02-Nov-19 14:11 35.171486 -118.856995 144 9448ft 246kts
02-Nov-19 14:12 35.114179 -118.810106 144 9445ft 246kts
02-Nov-19 14:14 35.057585 -118.763886 144 9439ft 238kts
02-Nov-19 14:15 35.002992 -118.719371 145 9443ft 234kts
02-Nov-19 14:16 34.948610 -118.675096 145 9443ft 234kts
02-Nov-19 14:17 34.894619 -118.631207 145 9444ft 233kts
02-Nov-19 14:18 34.838595 -118.585743 145 9457ft 245kts
02-Nov-19 14:19 34.783345 -118.540986 144 8227ft 236kts
02-Nov-19 14:20 34.728274 -118.496444 144 7496ft 239kts
02-Nov-19 14:21 34.672326 -118.451271 144 7498ft 241kts
02-Nov-19 14:22 34.606435 -118.434921 171 7499ft 240kts
02-Nov-19 14:23 34.543029 -118.427137 171 4787ft 236kts
02-Nov-19 14:24 34.483536 -118.422397 170 3426ft 188kts
02-Nov-19 14:25 34.467625 -118.376702 47 3931ft 195kts
02-Nov-19 14:26 34.501273 -118.334434 38 3585ft 129kts
02-Nov-19 14:27 34.526410 -118.310639 95 3458ft 104kts
02-Nov-19 14:28 34.507461 -118.306806 232 2676ft 84kts
02-Nov-19 14:29 34.503505 -118.314025 45 2609ft 0kts
02-Nov-19 14:30 34.503505 -118.314026 45 2609ft 0kts
02-Nov-19 14:31 34.503505 -118.314026 45 2609ft 0kts
02-Nov-19 14:32 34.503505 -118.314026 45 2609ft 0kts
02-Nov-19 14:33 34.503505 -118.314026 45 2609ft 0kts
02-Nov-19 14:33 34.503505 -118.314026 45 2609ft 0kts
02-Nov-19 14:35 34.503505 -118.314026 45 2609ft 0kts
02-Nov-19 14:36 34.503505 -118.314026 45 2609ft 0kts
02-Nov-19 14:36 34.503505 -118.314026 45 2609ft 0kts
02-Nov-19 14:38 34.503505 -118.314026 45 2609ft 0kts
02-Nov-19 14:38 34.503505 -118.314026 45 2609ft 0kts
02-Nov-19 14:39 34.503505 -118.314026 45 2609ft 0kts
02-Nov-19 14:40 34.503505 -118.314026 45 2609ft 0kts
02-Nov-19 14:41 34.503505 -118.314026 45 2609ft 0kts
02-Nov-19 14:42 34.503505 -118.314026 45 2609ft 0kts
02-Nov-19 14:43 34.503505 -118.314026 45 2609ft 0kts
02-Nov-19 14:44 34.503505 -118.314026 45 2609ft 0kts
02-Nov-19 14:45 34.503505 -118.314026 45 2609ft 0kts
02-Nov-19 14:46 34.503505 -118.314026 45 2609ft 0kts
02-Nov-19 14:47 34.503505 -118.314026 45 2609ft 0kts
02-Nov-19 14:48 34.503505 -118.314026 45 2609ft 0kts
02-Nov-19 14:49 34.503505 -118.314026 45 2609ft 0kts
02-Nov-19 14:50 34.503505 -118.314026 45 2609ft 0kts
02-Nov-19 14:51 34.503505 -118.314026 45 2609ft 0kts
02-Nov-19 14:52 34.503505 -118.314026 45 2609ft 0kts
02-Nov-19 14:53 34.503505 -118.314026 45 2609ft 0kts
02-Nov-19 14:54 34.503505 -118.314026 45 2609ft 0kts
02-Nov-19 14:55 34.503505 -118.314026 45 2609ft 0kts
02-Nov-19 14:56 34.503505 -118.314025 45 2609ft 0kts
02-Nov-19 14:57 34.503505 -118.314025 45 2609ft 0kts
02-Nov-19 14:58 34.503505 -118.314025 45 2609ft 0kts
02-Nov-19 14:59 34.503519 -118.314008 45 2610ft 2kts
02-Nov-19 15:00 34.506028 -118.309975 51 2634ft 11kts
02-Nov-19 15:01 34.498978 -118.320368 233 2921ft 122kts
02-Nov-19 15:02 34.471255 -118.364640 232 4106ft 220kts
02-Nov-19 15:03 34.433389 -118.426282 232 5106ft 238kts
02-Nov-19 15:04 34.406715 -118.498321 254 6002ft 241kts
02-Nov-19 15:05 34.359435 -118.550544 169 6001ft 243kts
02-Nov-19 15:06 34.317077 -118.494608 112 5968ft 222kts
02-Nov-19 15:07 34.293943 -118.427664 112 4999ft 212kts
02-Nov-19 15:08 34.271001 -118.361619 112 4999ft 212kts
02-Nov-19 15:09 34.247995 -118.295699 114 4997ft 212kts
02-Nov-19 15:10 34.221547 -118.238116 120 4987ft 203kts
02-Nov-19 15:11 34.192362 -118.181119 120 2531ft 208kts
02-Nov-19 15:12 34.163599 -118.123703 120 1626ft 177kts
02-Nov-19 15:13 34.145011 -118.084478 122 1582ft 101kts
02-Nov-19 15:14 34.131792 -118.054497 115 1361ft 112kts
02-Nov-19 15:15 34.115955 -118.024998 151 913ft 99kts
02-Nov-19 15:16 34.090470 -118.032290 201 310ft 77kts
02-Nov-19 15:17 34.083040 -118.036012 108 284ft 2kts
02-Nov-19 15:18 34.082616 -118.034797 104 288ft 0kts
02-Nov-19 15:19 34.082616 -118.034797 104 288ft 0kts
02-Nov-19 15:20 34.082616 -118.034797 104 288ft 0kts

Navigation Log

Ident Type
Flight plan parsing failed, navigation log unavailable